Mallet, Brazil
Current Conditions -  °F | °C
As of 6:00 PM on Wednesday 28 Jan 2015 (Local Time) from SBBI Reporting Station
Few Clouds Few Clouds  
Wind Chill: 79°   Ceiling: Unl
Heat Index: 81°   Visibility: 6mi
Dew Point: 64°   Wind: 7mph
Humidity: 61%   Direction: 330°NNW
Pressure: 29.94"   Gusts: NA
Location:  25.88°S, 50.82°W
Report Text: SBBI 282000Z 33006KT 9999 FEW025 26/18 Q1014
Loading
Personal Weather Stations






























Interactive Weather Map New forecast layout! Learn more

10-Day Weather Forecast

Advertisements
Track Severe Weather on mobile